Not for real navigation | The accuracy of this data is not assured | See disclaimer for more information
ICAO NAME COUNTRY WIND Kt GUST Kt VIS TEMP/DEW BARO
YCCY 19 0 9999 42/3 29.53
YCCY 180600Z AUTO 24019KT 9999 // NCD 42/03 Q1000
YBMA Mount Isa Amo Australia 16 0 9999 41/3 29.59
YBMA 180600Z AUTO 23016KT 9999 // NCD 41/03 Q1002 RF00.0/000.0
YTNK 7 0 9999 41/10 29.62
YTNK 180600Z AUTO 30007KT 250V360 9999 // NCD 41/10 Q1003
YRMD 7 0 9999 40/7 29.53
YRMD 180600Z AUTO 19007KT 160V230 9999 // SCT125 40/07 Q1000
YARG 7 0 9999 39/16 29.65
YARG 180600Z AUTO 29007KT 260V360 9999 // SCT125 39/16 Q1004

Show more

Close Menu